Kriti Ruby — SVAT5 — position and weather

sailwx.info

Track history (hours):
 
Tides and Currents Weather Stations Pressure Air Temp Water Temp Dewpoint Dewpoint Depression Visibility Wind Speed Wind Dir Waves Ship Positions

Kriti Ruby

Last reported at 2016-Jul-14 09:22 UTC. Time now 2016-Jul-31 01:39 UTC.
Position N 01°56' E 102°18'.
Warning: this ship's position is 16 days out of date.

Length 183 m; draft 8.5 m.

Type: Ship (hazmat cat C). MMSI: 240941000.

Date/timePositionNaut miles runAvg speedWind from/ knotsBaromVisibWave heightAir tempDewpointWater temp
2016-Jul-14 09:22N 01°56' E 102°18'1114.1
2016-Jul-14 08:33N 01°50' E 102°28'1413.9
2016-Jul-14 07:33N 01°44' E 102°40'7013.7
2016-Jul-14 02:28N 01°10' E 103°41'1011.3
2016-Jul-14 01:33N 01°12' E 103°51'4 1.1
2016-Jul-13 21:27N 01°15' E 103°54'0 0.1
2016-Jul-13 20:27N 01°15' E 103°54'0 0.0
2016-Jul-13 19:33N 01°15' E 103°54'0 0.0
2016-Jul-13 18:27N 01°15' E 103°54'0 0.0
2016-Jul-13 17:21N 01°15' E 103°54'0 0.0
2016-Jul-13 16:33N 01°15' E 103°54'0 0.0
2016-Jul-13 15:21N 01°15' E 103°54'0 0.0
2016-Jul-13 14:33N 01°15' E 103°54'0 0.0
2016-Jul-13 13:33N 01°15' E 103°54'0 0.0
2016-Jul-13 11:15N 01°15' E 103°54'0 0.0
2016-Jul-13 10:30N 01°15' E 103°54'0 0.0
2016-Jul-13 09:33N 01°15' E 103°54'0 0.0
2016-Jul-13 08:33N 01°15' E 103°54'0 0.0
2016-Jul-13 07:09N 01°15' E 103°54'0 0.1
2016-Jul-13 06:33N 01°15' E 103°54'0 0.1
2016-Jul-13 05:27N 01°15' E 103°54'0 0.0
2016-Jul-13 04:09N 01°15' E 103°54'0 0.1
2016-Jul-13 03:27N 01°15' E 103°54'0 0.2
2016-Jul-13 02:33N 01°15' E 103°54'0 0.0
2016-Jul-13 01:09N 01°15' E 103°54'0 0.0
2016-Jul-13 00:33N 01°15' E 103°54'0 0.0
2016-Jul-12 23:30N 01°15' E 103°54'0 0.0
2016-Jul-12 22:21N 01°15' E 103°54'0 0.0
2016-Jul-12 21:33N 01°15' E 103°54'0 0.0
2016-Jul-12 20:33N 01°15' E 103°54'0 0.0
2016-Jul-12 19:33N 01°15' E 103°54'0 0.1
2016-Jul-12 18:33N 01°15' E 103°54'5 5.2
2016-Jul-12 17:33N 01°16' E 103°59'7 6.5
2016-Jul-12 16:26N 01°18' E 104°06'910.1
2016-Jul-12 15:32N 01°25' E 104°00'6 0.1
2016-Jul-10 11:32N 01°21' E 104°04'  
2016-Jul-05 11:18N 23°35' E 119°54'912.2
2016-Jul-05 10:32N 23°44' E 119°56'1313.6
2016-Jul-05 09:33N 23°57' E 119°59'  
Track history (hours):
 
Tides and Currents Weather Stations Pressure Air Temp Water Temp Dewpoint Dewpoint Depression Visibility Wind Speed Wind Dir Waves Ship Positions

Kriti Ruby

Last reported at 2016-Jul-14 09:22 UTC. Time now 2016-Jul-31 01:39 UTC.
Position N 01°56' E 102°18'.
Warning: this ship's position is 16 days out of date.

Length 183 m; draft 8.5 m.

Type: Ship (hazmat cat C). MMSI: 240941000.

Date/timePositionNaut miles runAvg speedWind from/ knotsBaromVisibWave heightAir tempDewpointWater temp
2016-Jul-14 09:22N 01°56' E 102°18'1114.1
2016-Jul-14 08:33N 01°50' E 102°28'1413.9
2016-Jul-14 07:33N 01°44' E 102°40'7013.7
2016-Jul-14 02:28N 01°10' E 103°41'1011.3
2016-Jul-14 01:33N 01°12' E 103°51'4 1.1
2016-Jul-13 21:27N 01°15' E 103°54'0 0.1
2016-Jul-13 20:27N 01°15' E 103°54'0 0.0
2016-Jul-13 19:33N 01°15' E 103°54'0 0.0
2016-Jul-13 18:27N 01°15' E 103°54'0 0.0
2016-Jul-13 17:21N 01°15' E 103°54'0 0.0
2016-Jul-13 16:33N 01°15' E 103°54'0 0.0
2016-Jul-13 15:21N 01°15' E 103°54'0 0.0
2016-Jul-13 14:33N 01°15' E 103°54'0 0.0
2016-Jul-13 13:33N 01°15' E 103°54'0 0.0
2016-Jul-13 11:15N 01°15' E 103°54'0 0.0
2016-Jul-13 10:30N 01°15' E 103°54'0 0.0
2016-Jul-13 09:33N 01°15' E 103°54'0 0.0
2016-Jul-13 08:33N 01°15' E 103°54'0 0.0
2016-Jul-13 07:09N 01°15' E 103°54'0 0.1
2016-Jul-13 06:33N 01°15' E 103°54'0 0.1
2016-Jul-13 05:27N 01°15' E 103°54'0 0.0
2016-Jul-13 04:09N 01°15' E 103°54'0 0.1
2016-Jul-13 03:27N 01°15' E 103°54'0 0.2
2016-Jul-13 02:33N 01°15' E 103°54'0 0.0
2016-Jul-13 01:09N 01°15' E 103°54'0 0.0
2016-Jul-13 00:33N 01°15' E 103°54'0 0.0
2016-Jul-12 23:30N 01°15' E 103°54'0 0.0
2016-Jul-12 22:21N 01°15' E 103°54'0 0.0
2016-Jul-12 21:33N 01°15' E 103°54'0 0.0
2016-Jul-12 20:33N 01°15' E 103°54'0 0.0
2016-Jul-12 19:33N 01°15' E 103°54'0 0.1
2016-Jul-12 18:33N 01°15' E 103°54'5 5.2
2016-Jul-12 17:33N 01°16' E 103°59'7 6.5
2016-Jul-12 16:26N 01°18' E 104°06'910.1
2016-Jul-12 15:32N 01°25' E 104°00'6 0.1
2016-Jul-10 11:32N 01°21' E 104°04'  
2016-Jul-05 11:18N 23°35' E 119°54'912.2
2016-Jul-05 10:32N 23°44' E 119°56'1313.6
2016-Jul-05 09:33N 23°57' E 119°59'  

Dump ship's entire track history